sensor_id;sensor_type;location;lat;lon;timestamp;pressure;altitude;pressure_sealevel;temperature;humidity
8451;BME280;4262;50.980;13.892;2023-04-01T04:02:30;50325.84;;;-142.97;27.79
8451;BME280;4262;50.980;13.892;2023-04-01T04:04:56;50333.63;;;-142.97;27.69
8451;BME280;4262;50.980;13.892;2023-04-01T04:07:26;50310.25;;;-142.97;27.57
8451;BME280;4262;50.980;13.892;2023-04-01T04:10:01;50329.72;;;-142.97;26.82
8451;BME280;4262;50.980;13.892;2023-04-01T04:12:28;50320.00;;;-142.97;26.93
8451;BME280;4262;50.980;13.892;2023-04-01T04:14:55;50341.44;;;-142.97;26.41
8451;BME280;4262;50.980;13.892;2023-04-01T04:17:22;50304.38;;;-142.97;25.70
8451;BME280;4262;50.980;13.892;2023-04-01T04:19:51;50341.44;;;-142.97;25.74
8451;BME280;4262;50.980;13.892;2023-04-01T04:22:18;50314.13;;;-142.97;27.28
8451;BME280;4262;50.980;13.892;2023-04-01T04:24:44;50339.47;;;-142.97;27.21
8451;BME280;4262;50.980;13.892;2023-04-01T04:27:12;50329.72;;;-142.97;27.26
8451;BME280;4262;50.980;13.892;2023-04-01T04:29:52;50316.09;;;-142.97;26.24
8451;BME280;4262;50.980;13.892;2023-04-01T04:32:19;50318.03;;;-142.97;26.41
8451;BME280;4262;50.980;13.892;2023-04-01T04:34:46;50288.78;;;-142.97;27.04
8451;BME280;4262;50.980;13.892;2023-04-01T04:37:15;50304.38;;;-142.97;27.06
8451;BME280;4262;50.980;13.892;2023-04-01T04:39:42;50345.34;;;-142.97;26.96
8451;BME280;4262;50.980;13.892;2023-04-01T04:42:09;50339.47;;;-142.97;27.55
8451;BME280;4262;50.980;13.892;2023-04-01T04:44:36;50316.09;;;-142.97;26.65
8451;BME280;4262;50.980;13.892;2023-04-01T04:47:03;50327.78;;;-142.97;26.66
8451;BME280;4262;50.980;13.892;2023-04-01T04:49:30;50341.44;;;-142.97;26.53
8451;BME280;4262;50.980;13.892;2023-04-01T04:52:04;50333.63;;;-142.97;26.80
8451;BME280;4262;50.980;13.892;2023-04-01T04:54:33;50304.38;;;-142.97;27.63
8451;BME280;4262;50.980;13.892;2023-04-01T04:57:03;50353.13;;;-142.97;27.53
8451;BME280;4262;50.980;13.892;2023-04-01T04:59:35;50333.63;;;-142.97;27.98
8451;BME280;4262;50.980;13.892;2023-04-01T05:02:07;50325.84;;;-142.97;27.81
8451;BME280;4262;50.980;13.892;2023-04-01T05:04:35;50323.88;;;-142.97;26.74
8451;BME280;4262;50.980;13.892;2023-04-01T05:07:06;50329.72;;;-142.97;26.73
8451;BME280;4262;50.980;13.892;2023-04-01T05:09:34;50327.78;;;-142.97;26.46
8451;BME280;4262;50.980;13.892;2023-04-01T05:12:03;50351.19;;;-142.97;27.14
8451;BME280;4262;50.980;13.892;2023-04-01T05:14:50;50323.88;;;-142.97;27.35
8451;BME280;4262;50.980;13.892;2023-04-01T05:17:19;50298.53;;;-142.97;26.81
8451;BME280;4262;50.980;13.892;2023-04-01T05:19:46;50320.00;;;-142.97;27.43
8451;BME280;4262;50.980;13.892;2023-04-01T05:22:12;50353.13;;;-142.97;27.37
8451;BME280;4262;50.980;13.892;2023-04-01T05:24:41;50318.03;;;-142.97;27.67
8451;BME280;4262;50.980;13.892;2023-04-01T05:27:10;50300.50;;;-142.97;27.55
8451;BME280;4262;50.980;13.892;2023-04-01T05:29:39;50333.63;;;-142.97;28.51
8451;BME280;4262;50.980;13.892;2023-04-01T05:32:11;50337.53;;;-142.97;27.72
8451;BME280;4262;50.980;13.892;2023-04-01T05:34:38;50316.09;;;-142.97;27.18
8451;BME280;4262;50.980;13.892;2023-04-01T05:37:07;50353.13;;;-142.97;28.10
8451;BME280;4262;50.980;13.892;2023-04-01T05:39:36;50355.09;;;-142.97;28.49
8451;BME280;4262;50.980;13.892;2023-04-01T05:42:05;50327.78;;;-142.97;28.85
8451;BME280;4262;50.980;13.892;2023-04-01T05:44:32;50335.59;;;-142.97;28.77
8451;BME280;4262;50.980;13.892;2023-04-01T05:47:02;50333.63;;;-142.97;28.99
8451;BME280;4262;50.980;13.892;2023-04-01T05:49:29;50329.72;;;-142.97;28.85
8451;BME280;4262;50.980;13.892;2023-04-01T05:51:56;50351.19;;;-142.97;28.77
8451;BME280;4262;50.980;13.892;2023-04-01T05:54:23;50323.88;;;-142.97;27.65
8451;BME280;4262;50.980;13.892;2023-04-01T05:56:49;50345.34;;;-142.97;28.42
8451;BME280;4262;50.980;13.892;2023-04-01T05:59:19;50353.13;;;-142.97;27.98
8451;BME280;4262;50.980;13.892;2023-04-01T06:01:46;50327.78;;;-142.97;29.28
8451;BME280;4262;50.980;13.892;2023-04-01T06:04:14;50333.63;;;-142.97;27.93
8451;BME280;4262;50.980;13.892;2023-04-01T06:06:41;50341.44;;;-142.97;28.90
8451;BME280;4262;50.980;13.892;2023-04-01T06:09:14;50353.13;;;-142.97;27.58
8451;BME280;4262;50.980;13.892;2023-04-01T06:12:09;50310.25;;;-142.97;28.35
8451;BME280;4262;50.980;13.892;2023-04-01T06:15:01;50325.84;;;-142.97;28.12
8451;BME280;4262;50.980;13.892;2023-04-01T06:17:43;50335.59;;;-142.97;28.20
8451;BME280;4262;50.980;13.892;2023-04-01T06:20:21;50318.03;;;-142.97;27.72
8451;BME280;4262;50.980;13.892;2023-04-01T06:23:02;50333.63;;;-142.97;27.74
8451;BME280;4262;50.980;13.892;2023-04-01T06:25:46;50349.22;;;-142.97;28.15
8451;BME280;4262;50.980;13.892;2023-04-01T06:28:35;50286.84;;;-142.97;27.96
8451;BME280;4262;50.980;13.892;2023-04-01T06:31:10;50298.53;;;-142.97;27.53
8451;BME280;4262;50.980;13.892;2023-04-01T06:33:52;50306.34;;;-142.97;27.18
8451;BME280;4262;50.980;13.892;2023-04-01T06:36:35;50298.53;;;-142.97;26.50
8451;BME280;4262;50.980;13.892;2023-04-01T06:39:27;50323.88;;;-142.97;26.25
8451;BME280;4262;50.980;13.892;2023-04-01T06:42:04;50310.25;;;-142.97;26.69
8451;BME280;4262;50.980;13.892;2023-04-01T06:44:43;50300.50;;;-142.97;27.19
8451;BME280;4262;50.980;13.892;2023-04-01T06:47:49;50279.03;;;-142.97;26.77
8451;BME280;4262;50.980;13.892;2023-04-01T06:50:43;50314.13;;;-142.97;27.29
8451;BME280;4262;50.980;13.892;2023-04-01T06:53:42;50325.84;;;-142.97;26.77
8451;BME280;4262;50.980;13.892;2023-04-01T06:56:33;50321.94;;;-142.97;26.73
8451;BME280;4262;50.980;13.892;2023-04-01T06:59:08;50318.03;;;-142.97;26.53
8451;BME280;4262;50.980;13.892;2023-04-01T07:01:39;50298.53;;;-142.97;27.11
8451;BME280;4262;50.980;13.892;2023-04-01T07:04:14;50318.03;;;-142.97;27.38
8451;BME280;4262;50.980;13.892;2023-04-01T07:06:45;50316.09;;;-142.97;27.59
8451;BME280;4262;50.980;13.892;2023-04-01T07:09:18;50349.22;;;-142.97;27.66
8451;BME280;4262;50.980;13.892;2023-04-01T07:12:11;50306.34;;;-142.97;26.99
8451;BME280;4262;50.980;13.892;2023-04-01T07:15:03;50302.44;;;-142.97;27.41
8451;BME280;4262;50.980;13.892;2023-04-01T07:17:35;50316.09;;;-142.97;27.07
8451;BME280;4262;50.980;13.892;2023-04-01T07:20:11;50308.28;;;-142.97;27.60
8451;BME280;4262;50.980;13.892;2023-04-01T07:22:43;50300.50;;;-142.97;27.51
8451;BME280;4262;50.980;13.892;2023-04-01T07:25:29;50312.19;;;-142.97;28.32
8451;BME280;4262;50.980;13.892;2023-04-01T07:28:35;50327.78;;;-142.97;27.82
8451;BME280;4262;50.980;13.892;2023-04-01T07:31:20;50300.50;;;-142.97;28.25
8451;BME280;4262;50.980;13.892;2023-04-01T07:33:58;50286.84;;;-142.97;27.49
8451;BME280;4262;50.980;13.892;2023-04-01T07:36:38;50294.63;;;-142.97;27.84
8451;BME280;4262;50.980;13.892;2023-04-01T07:39:13;50282.94;;;-142.97;28.95
8451;BME280;4262;50.980;13.892;2023-04-01T07:42:02;50298.53;;;-142.97;27.82
8451;BME280;4262;50.980;13.892;2023-04-01T07:44:39;50308.28;;;-142.97;29.58
8451;BME280;4262;50.980;13.892;2023-04-01T07:47:23;50284.91;;;-142.97;27.93
8451;BME280;4262;50.980;13.892;2023-04-01T07:50:03;50279.03;;;-142.97;28.53
8451;BME280;4262;50.980;13.892;2023-04-01T07:53:07;50267.34;;;-142.97;29.21
8451;BME280;4262;50.980;13.892;2023-04-01T07:55:43;50298.53;;;-142.97;29.41
8451;BME280;4262;50.980;13.892;2023-04-01T07:58:20;50286.84;;;-142.97;28.73
8451;BME280;4262;50.980;13.892;2023-04-01T08:00:57;50298.53;;;-142.97;27.07
8451;BME280;4262;50.980;13.892;2023-04-01T08:03:42;50294.63;;;-142.97;26.80
8451;BME280;4262;50.980;13.892;2023-04-01T08:06:19;50314.13;;;-142.97;26.15
8451;BME280;4262;50.980;13.892;2023-04-01T08:08:59;50310.25;;;-142.97;26.75
8451;BME280;4262;50.980;13.892;2023-04-01T08:11:59;50273.19;;;-142.97;28.53
8451;BME280;4262;50.980;13.892;2023-04-01T08:14:56;50296.59;;;-142.97;27.61
8451;BME280;4262;50.980;13.892;2023-04-01T08:17:54;50261.50;;;-142.97;26.58
8451;BME280;4262;50.980;13.892;2023-04-01T08:20:28;50298.53;;;-142.97;28.46
8451;BME280;4262;50.980;13.892;2023-04-01T08:23:05;50284.91;;;-142.97;28.04
8451;BME280;4262;50.980;13.892;2023-04-01T08:25:41;50240.06;;;-142.97;27.47
8451;BME280;4262;50.980;13.892;2023-04-01T08:28:16;50253.69;;;-142.97;27.16
8451;BME280;4262;50.980;13.892;2023-04-01T08:30:48;50259.56;;;-142.97;27.60
8451;BME280;4262;50.980;13.892;2023-04-01T08:33:19;50251.75;;;-142.97;28.05
8451;BME280;4262;50.980;13.892;2023-04-01T08:35:57;50247.84;;;-142.97;27.11
8451;BME280;4262;50.980;13.892;2023-04-01T08:38:29;50245.91;;;-142.97;26.68
8451;BME280;4262;50.980;13.892;2023-04-01T08:41:11;50277.09;;;-142.97;27.17
8451;BME280;4262;50.980;13.892;2023-04-01T08:44:24;50273.19;;;-142.97;26.63
8451;BME280;4262;50.980;13.892;2023-04-01T08:47:17;50298.53;;;-142.97;27.38
8451;BME280;4262;50.980;13.892;2023-04-01T08:50:08;50314.13;;;-142.97;28.45
8451;BME280;4262;50.980;13.892;2023-04-01T08:53:00;50286.84;;;-142.97;28.08
8451;BME280;4262;50.980;13.892;2023-04-01T08:55:37;50294.63;;;-142.97;28.11
8451;BME280;4262;50.980;13.892;2023-04-01T08:58:35;50271.25;;;-142.97;27.98
8451;BME280;4262;50.980;13.892;2023-04-01T09:01:26;50302.44;;;-142.97;27.04
8451;BME280;4262;50.980;13.892;2023-04-01T09:04:14;50265.41;;;-142.97;27.57
8451;BME280;4262;50.980;13.892;2023-04-01T09:06:52;50269.28;;;-142.97;27.40
8451;BME280;4262;50.980;13.892;2023-04-01T09:09:58;50279.03;;;-142.97;27.38
8451;BME280;4262;50.980;13.892;2023-04-01T09:12:44;50314.13;;;-142.97;27.14
8451;BME280;4262;50.980;13.892;2023-04-01T09:15:49;50267.34;;;-142.97;27.64
8451;BME280;4262;50.980;13.892;2023-04-01T09:18:44;50275.16;;;-142.97;27.96
8451;BME280;4262;50.980;13.892;2023-04-01T09:21:34;50279.03;;;-142.97;27.52
8451;BME280;4262;50.980;13.892;2023-04-01T09:24:26;50271.25;;;-142.97;27.26
8451;BME280;4262;50.980;13.892;2023-04-01T09:27:04;50240.06;;;-142.97;26.22
8451;BME280;4262;50.980;13.892;2023-04-01T09:29:53;50255.66;;;-142.97;26.71
8451;BME280;4262;50.980;13.892;2023-04-01T09:32:51;50242.00;;;-142.97;26.45
8451;BME280;4262;50.980;13.892;2023-04-01T09:35:33;50242.00;;;-142.97;27.01
8451;BME280;4262;50.980;13.892;2023-04-01T09:38:17;50214.72;;;-142.97;26.99
8451;BME280;4262;50.980;13.892;2023-04-01T09:40:54;50249.81;;;-142.97;26.95
8451;BME280;4262;50.980;13.892;2023-04-01T09:43:57;50251.75;;;-142.97;27.79
8451;BME280;4262;50.980;13.892;2023-04-01T09:46:37;50259.56;;;-142.97;26.66
8451;BME280;4262;50.980;13.892;2023-04-01T09:49:37;50222.50;;;-142.97;27.42
8451;BME280;4262;50.980;13.892;2023-04-01T09:52:20;50220.56;;;-142.97;26.94
8451;BME280;4262;50.980;13.892;2023-04-01T09:55:06;50253.69;;;-142.97;26.46
8451;BME280;4262;50.980;13.892;2023-04-01T09:58:04;50245.91;;;-142.97;26.67
8451;BME280;4262;50.980;13.892;2023-04-01T10:04:18;50183.50;;;-142.97;26.27
8451;BME280;4262;50.980;13.892;2023-04-01T10:07:08;50201.06;;;-142.97;26.36
8451;BME280;4262;50.980;13.892;2023-04-01T10:10:03;50181.56;;;-142.97;25.65
8451;BME280;4262;50.980;13.892;2023-04-01T10:12:52;50226.41;;;-142.97;25.66
8451;BME280;4262;50.980;13.892;2023-04-01T10:15:36;50242.00;;;-142.97;25.81
8451;BME280;4262;50.980;13.892;2023-04-01T10:21:52;50226.41;;;-142.97;26.70
8451;BME280;4262;50.980;13.892;2023-04-01T10:24:31;50238.09;;;-142.97;26.31
8451;BME280;4262;50.980;13.892;2023-04-01T10:27:42;50243.94;;;-142.97;26.50
8451;BME280;4262;50.980;13.892;2023-04-01T10:34:24;50253.69;;;-142.97;26.24
8451;BME280;4262;50.980;13.892;2023-04-01T10:36:59;50257.59;;;-142.97;27.00
8451;BME280;4262;50.980;13.892;2023-04-01T10:40:18;50245.91;;;-142.97;26.49
8451;BME280;4262;50.980;13.892;2023-04-01T10:43:43;50281.00;;;-142.97;26.70
8451;BME280;4262;50.980;13.892;2023-04-01T10:46:47;50210.81;;;-142.97;26.77
8451;BME280;4262;50.980;13.892;2023-04-01T10:49:41;50245.91;;;-142.97;27.18
8451;BME280;4262;50.980;13.892;2023-04-01T10:52:30;50210.81;;;-142.97;26.64
8451;BME280;4262;50.980;13.892;2023-04-01T10:55:28;50208.84;;;-142.97;25.76
8451;BME280;4262;50.980;13.892;2023-04-01T10:58:57;50142.56;;;-142.97;26.10
8451;BME280;4262;50.980;13.892;2023-04-01T11:06:03;50181.56;;;-142.97;25.52
8451;BME280;4262;50.980;13.892;2023-04-01T11:12:27;50204.97;;;-142.97;25.65
8451;BME280;4262;50.980;13.892;2023-04-01T11:15:23;50212.75;;;-142.97;25.41
8451;BME280;4262;50.980;13.892;2023-04-01T11:21:49;50183.50;;;-142.97;24.97
8451;BME280;4262;50.980;13.892;2023-04-01T11:24:50;50165.97;;;-142.97;24.84
8451;BME280;4262;50.980;13.892;2023-04-01T11:28:01;50146.47;;;-142.97;23.90
8451;BME280;4262;50.980;13.892;2023-04-01T11:30:57;50195.22;;;-142.97;24.32
8451;BME280;4262;50.980;13.892;2023-04-01T11:33:31;50212.75;;;-142.97;24.83
8451;BME280;4262;50.980;13.892;2023-04-01T11:36:11;50243.94;;;-142.97;25.04
8451;BME280;4262;50.980;13.892;2023-04-01T11:38:57;50240.06;;;-142.97;25.23
8451;BME280;4262;50.980;13.892;2023-04-01T11:41:58;50242.00;;;-142.97;25.13
8451;BME280;4262;50.980;13.892;2023-04-01T11:44:53;50074.34;;;-142.97;24.64
8451;BME280;4262;50.980;13.892;2023-04-01T11:47:51;50103.59;;;-142.97;24.60
8451;BME280;4262;50.980;13.892;2023-04-01T11:50:31;50234.19;;;-142.97;25.61
8451;BME280;4262;50.980;13.892;2023-04-01T11:53:18;50208.84;;;-142.97;25.83
8451;BME280;4262;50.980;13.892;2023-04-01T11:55:54;50236.16;;;-142.97;25.33
8451;BME280;4262;50.980;13.892;2023-04-01T12:01:30;50230.31;;;-142.97;25.23
8451;BME280;4262;50.980;13.892;2023-04-01T12:07:17;50296.59;;;-142.97;26.08
8451;BME280;4262;50.980;13.892;2023-04-01T12:09:54;50300.50;;;-142.97;25.82
8451;BME280;4262;50.980;13.892;2023-04-01T12:12:29;50261.50;;;-142.97;25.32
8451;BME280;4262;50.980;13.892;2023-04-01T12:15:13;50275.16;;;-142.97;24.46
8451;BME280;4262;50.980;13.892;2023-04-01T12:17:49;50284.91;;;-142.97;24.48
8451;BME280;4262;50.980;13.892;2023-04-01T12:20:39;50292.69;;;-142.97;24.36
8451;BME280;4262;50.980;13.892;2023-04-01T12:23:21;50298.53;;;-142.97;24.17
8451;BME280;4262;50.980;13.892;2023-04-01T12:26:04;50259.56;;;-142.97;24.03
8451;BME280;4262;50.980;13.892;2023-04-01T12:28:43;50263.44;;;-142.97;23.81
8451;BME280;4262;50.980;13.892;2023-04-01T12:31:24;50265.41;;;-142.97;23.85
8451;BME280;4262;50.980;13.892;2023-04-01T12:34:05;50265.41;;;-142.97;23.72
8451;BME280;4262;50.980;13.892;2023-04-01T12:36:42;50249.81;;;-142.97;24.38
8451;BME280;4262;50.980;13.892;2023-04-01T12:39:32;50228.34;;;-142.97;23.52
8451;BME280;4262;50.980;13.892;2023-04-01T12:42:10;50240.06;;;-142.97;24.64
8451;BME280;4262;50.980;13.892;2023-04-01T12:44:49;50245.91;;;-142.97;24.46
8451;BME280;4262;50.980;13.892;2023-04-01T12:47:37;50232.25;;;-142.97;23.95
8451;BME280;4262;50.980;13.892;2023-04-01T12:50:34;50238.09;;;-142.97;23.84
8451;BME280;4262;50.980;13.892;2023-04-01T12:53:20;50181.56;;;-142.97;24.47
8451;BME280;4262;50.980;13.892;2023-04-01T12:55:51;50222.50;;;-142.97;24.48
8451;BME280;4262;50.980;13.892;2023-04-01T12:58:48;50249.81;;;-142.97;24.67
8451;BME280;4262;50.980;13.892;2023-04-01T13:01:48;50286.84;;;-142.97;24.04
8451;BME280;4262;50.980;13.892;2023-04-01T13:04:37;50281.00;;;-142.97;24.00
8451;BME280;4262;50.980;13.892;2023-04-01T13:07:49;50281.00;;;-142.97;24.82
8451;BME280;4262;50.980;13.892;2023-04-01T13:10:31;50259.56;;;-142.97;24.19
8451;BME280;4262;50.980;13.892;2023-04-01T13:16:11;50269.28;;;-142.97;24.57
8451;BME280;4262;50.980;13.892;2023-04-01T13:18:52;50271.25;;;-142.97;24.84
8451;BME280;4262;50.980;13.892;2023-04-01T13:21:30;50281.00;;;-142.97;25.20
8451;BME280;4262;50.980;13.892;2023-04-01T13:24:08;50298.53;;;-142.97;25.83
8451;BME280;4262;50.980;13.892;2023-04-01T13:26:39;50273.19;;;-142.97;25.24
8451;BME280;4262;50.980;13.892;2023-04-01T13:29:12;50281.00;;;-142.97;24.74
8451;BME280;4262;50.980;13.892;2023-04-01T13:31:51;50269.28;;;-142.97;25.45
8451;BME280;4262;50.980;13.892;2023-04-01T13:34:32;50279.03;;;-142.97;24.92
8451;BME280;4262;50.980;13.892;2023-04-01T13:37:12;50257.59;;;-142.97;24.35
8451;BME280;4262;50.980;13.892;2023-04-01T13:39:54;50255.66;;;-142.97;24.57
8451;BME280;4262;50.980;13.892;2023-04-01T13:42:26;50243.94;;;-142.97;24.13
8451;BME280;4262;50.980;13.892;2023-04-01T13:45:00;50282.94;;;-142.97;24.55
8451;BME280;4262;50.980;13.892;2023-04-01T13:47:59;50259.56;;;-142.97;24.48
8451;BME280;4262;50.980;13.892;2023-04-01T13:53:47;50199.13;;;-142.97;24.29
8451;BME280;4262;50.980;13.892;2023-04-01T13:56:30;50240.06;;;-142.97;24.87
8451;BME280;4262;50.980;13.892;2023-04-01T13:59:28;50240.06;;;-142.97;23.97
8451;BME280;4262;50.980;13.892;2023-04-01T14:02:16;50279.03;;;-142.97;23.72
8451;BME280;4262;50.980;13.892;2023-04-01T14:05:09;50257.59;;;-142.97;24.72
8451;BME280;4262;50.980;13.892;2023-04-01T14:07:50;50277.09;;;-142.97;24.88
8451;BME280;4262;50.980;13.892;2023-04-01T14:10:31;50288.78;;;-142.97;24.51
8451;BME280;4262;50.980;13.892;2023-04-01T14:13:13;50240.06;;;-142.97;24.76
8451;BME280;4262;50.980;13.892;2023-04-01T14:15:59;50251.75;;;-142.97;24.53
8451;BME280;4262;50.980;13.892;2023-04-01T14:18:39;50302.44;;;-142.97;24.49
8451;BME280;4262;50.980;13.892;2023-04-01T14:21:17;50257.59;;;-142.97;24.16
8451;BME280;4262;50.980;13.892;2023-04-01T14:24:17;50255.66;;;-142.97;23.76
8451;BME280;4262;50.980;13.892;2023-04-01T14:27:02;50300.50;;;-142.97;23.96
8451;BME280;4262;50.980;13.892;2023-04-01T14:29:52;50279.03;;;-142.97;24.87
8451;BME280;4262;50.980;13.892;2023-04-01T14:32:38;50261.50;;;-142.97;25.00
8451;BME280;4262;50.980;13.892;2023-04-01T14:35:26;50306.34;;;-142.97;24.90
8451;BME280;4262;50.980;13.892;2023-04-01T14:38:14;50275.16;;;-142.97;24.61
8451;BME280;4262;50.980;13.892;2023-04-01T14:41:09;50243.94;;;-142.97;24.77
8451;BME280;4262;50.980;13.892;2023-04-01T14:44:24;50249.81;;;-142.97;24.49
8451;BME280;4262;50.980;13.892;2023-04-01T14:50:11;50269.28;;;-142.97;24.74
8451;BME280;4262;50.980;13.892;2023-04-01T14:52:55;50281.00;;;-142.97;24.46
8451;BME280;4262;50.980;13.892;2023-04-01T14:55:31;50314.13;;;-142.97;24.31
8451;BME280;4262;50.980;13.892;2023-04-01T14:58:22;50279.03;;;-142.97;23.65
8451;BME280;4262;50.980;13.892;2023-04-01T15:00:59;50251.75;;;-142.97;23.99
8451;BME280;4262;50.980;13.892;2023-04-01T15:03:32;50282.94;;;-142.97;24.04
8451;BME280;4262;50.980;13.892;2023-04-01T15:06:34;50304.38;;;-142.97;24.55
8451;BME280;4262;50.980;13.892;2023-04-01T15:09:18;50279.03;;;-142.97;24.60
8451;BME280;4262;50.980;13.892;2023-04-01T15:12:00;50294.63;;;-142.97;24.72
8451;BME280;4262;50.980;13.892;2023-04-01T15:14:51;50284.91;;;-142.97;24.48
8451;BME280;4262;50.980;13.892;2023-04-01T15:17:41;50282.94;;;-142.97;24.49
8451;BME280;4262;50.980;13.892;2023-04-01T15:20:25;50288.78;;;-142.97;24.46
8451;BME280;4262;50.980;13.892;2023-04-01T15:23:09;50308.28;;;-142.97;24.38
8451;BME280;4262;50.980;13.892;2023-04-01T15:25:55;50288.78;;;-142.97;24.34
8451;BME280;4262;50.980;13.892;2023-04-01T15:28:32;50298.53;;;-142.97;25.28
8451;BME280;4262;50.980;13.892;2023-04-01T15:31:11;50296.59;;;-142.97;26.66
8451;BME280;4262;50.980;13.892;2023-04-01T15:33:57;50288.78;;;-142.97;25.93
8451;BME280;4262;50.980;13.892;2023-04-01T15:36:38;50282.94;;;-142.97;25.52
8451;BME280;4262;50.980;13.892;2023-04-01T15:39:13;50269.28;;;-142.97;26.39
8451;BME280;4262;50.980;13.892;2023-04-01T15:42:04;50269.28;;;-142.97;26.41
8451;BME280;4262;50.980;13.892;2023-04-01T15:44:50;50279.03;;;-142.97;25.69
8451;BME280;4262;50.980;13.892;2023-04-01T15:47:33;50300.50;;;-142.97;24.91
8451;BME280;4262;50.980;13.892;2023-04-01T15:53:09;50298.53;;;-142.97;25.87
8451;BME280;4262;50.980;13.892;2023-04-01T15:55:46;50275.16;;;-142.97;25.40
8451;BME280;4262;50.980;13.892;2023-04-01T15:58:30;50308.28;;;-142.97;24.79
8451;BME280;4262;50.980;13.892;2023-04-01T16:01:10;50271.25;;;-142.97;24.79
8451;BME280;4262;50.980;13.892;2023-04-01T16:03:42;50290.75;;;-142.97;25.45
8451;BME280;4262;50.980;13.892;2023-04-01T16:06:35;50290.75;;;-142.97;25.59
8451;BME280;4262;50.980;13.892;2023-04-01T16:12:16;50308.28;;;-142.97;26.12
8451;BME280;4262;50.980;13.892;2023-04-01T16:14:55;50286.84;;;-142.97;24.91
8451;BME280;4262;50.980;13.892;2023-04-01T16:17:59;50275.16;;;-142.97;25.35
8451;BME280;4262;50.980;13.892;2023-04-01T16:20:44;50306.34;;;-142.97;25.68
8451;BME280;4262;50.980;13.892;2023-04-01T16:23:18;50282.94;;;-142.97;25.85
8451;BME280;4262;50.980;13.892;2023-04-01T16:25:53;50296.59;;;-142.97;24.76
8451;BME280;4262;50.980;13.892;2023-04-01T16:28:30;50298.53;;;-142.97;24.86
8451;BME280;4262;50.980;13.892;2023-04-01T16:31:04;50302.44;;;-142.97;24.67
8451;BME280;4262;50.980;13.892;2023-04-01T16:33:44;50279.03;;;-142.97;25.63
8451;BME280;4262;50.980;13.892;2023-04-01T16:36:24;50302.44;;;-142.97;24.94
8451;BME280;4262;50.980;13.892;2023-04-01T16:39:07;50281.00;;;-142.97;25.29
8451;BME280;4262;50.980;13.892;2023-04-01T16:41:41;50273.19;;;-142.97;24.84
8451;BME280;4262;50.980;13.892;2023-04-01T16:44:18;50275.16;;;-142.97;25.33
8451;BME280;4262;50.980;13.892;2023-04-01T16:46:50;50288.78;;;-142.97;24.99
8451;BME280;4262;50.980;13.892;2023-04-01T16:49:30;50308.28;;;-142.97;25.46
8451;BME280;4262;50.980;13.892;2023-04-01T16:52:14;50310.25;;;-142.97;25.12
8451;BME280;4262;50.980;13.892;2023-04-01T16:54:47;50292.69;;;-142.97;25.95
8451;BME280;4262;50.980;13.892;2023-04-01T16:57:24;50298.53;;;-142.97;26.25
8451;BME280;4262;50.980;13.892;2023-04-01T16:59:56;50306.34;;;-142.97;26.17
8451;BME280;4262;50.980;13.892;2023-04-01T17:02:31;50306.34;;;-142.97;26.12
8451;BME280;4262;50.980;13.892;2023-04-01T17:05:03;50312.19;;;-142.97;25.98
8451;BME280;4262;50.980;13.892;2023-04-01T17:07:44;50318.03;;;-142.97;25.68
8451;BME280;4262;50.980;13.892;2023-04-01T17:10:31;50294.63;;;-142.97;26.14
8451;BME280;4262;50.980;13.892;2023-04-01T17:13:18;50349.22;;;-142.97;25.98
8451;BME280;4262;50.980;13.892;2023-04-01T17:16:04;50275.16;;;-142.97;25.76
8451;BME280;4262;50.980;13.892;2023-04-01T17:18:43;50314.13;;;-142.97;26.69
8451;BME280;4262;50.980;13.892;2023-04-01T17:21:17;50302.44;;;-142.97;26.52
8451;BME280;4262;50.980;13.892;2023-04-01T17:23:50;50304.38;;;-142.97;26.68
8451;BME280;4262;50.980;13.892;2023-04-01T17:26:25;50286.84;;;-142.97;26.54
8451;BME280;4262;50.980;13.892;2023-04-01T17:29:01;50325.84;;;-142.97;26.61
8451;BME280;4262;50.980;13.892;2023-04-01T17:31:41;50316.09;;;-142.97;26.85
8451;BME280;4262;50.980;13.892;2023-04-01T17:34:39;50308.28;;;-142.97;26.97
8451;BME280;4262;50.980;13.892;2023-04-01T17:37:23;50335.59;;;-142.97;26.66
8451;BME280;4262;50.980;13.892;2023-04-01T17:40:07;50294.63;;;-142.97;26.91
8451;BME280;4262;50.980;13.892;2023-04-01T17:42:40;50277.09;;;-142.97;26.70
8451;BME280;4262;50.980;13.892;2023-04-01T17:45:20;50333.63;;;-142.97;26.38
8451;BME280;4262;50.980;13.892;2023-04-01T17:48:06;50320.00;;;-142.97;26.31
8451;BME280;4262;50.980;13.892;2023-04-01T17:50:56;50312.19;;;-142.97;26.47
8451;BME280;4262;50.980;13.892;2023-04-01T17:53:39;50306.34;;;-142.97;26.62
8451;BME280;4262;50.980;13.892;2023-04-01T17:56:33;50286.84;;;-142.97;26.68
8451;BME280;4262;50.980;13.892;2023-04-01T17:59:10;50292.69;;;-142.97;26.41
8451;BME280;4262;50.980;13.892;2023-04-01T18:01:54;50306.34;;;-142.97;26.49
8451;BME280;4262;50.980;13.892;2023-04-01T18:04:36;50312.19;;;-142.97;26.98
8451;BME280;4262;50.980;13.892;2023-04-01T18:07:26;50312.19;;;-142.97;26.86
8451;BME280;4262;50.980;13.892;2023-04-01T18:10:08;50298.53;;;-142.97;27.04
8451;BME280;4262;50.980;13.892;2023-04-01T18:12:51;50318.03;;;-142.97;27.77
8451;BME280;4262;50.980;13.892;2023-04-01T18:15:37;50306.34;;;-142.97;28.32
8451;BME280;4262;50.980;13.892;2023-04-01T18:21:11;50290.75;;;-142.97;27.83
8451;BME280;4262;50.980;13.892;2023-04-01T18:23:43;50298.53;;;-142.97;27.61
8451;BME280;4262;50.980;13.892;2023-04-01T18:26:13;50308.28;;;-142.97;28.17
8451;BME280;4262;50.980;13.892;2023-04-01T18:28:50;50314.13;;;-142.97;27.67
8451;BME280;4262;50.980;13.892;2023-04-01T18:31:22;50271.25;;;-142.97;27.83
8451;BME280;4262;50.980;13.892;2023-04-01T18:33:57;50312.19;;;-142.97;27.66
8451;BME280;4262;50.980;13.892;2023-04-01T18:36:37;50294.63;;;-142.97;27.21
8451;BME280;4262;50.980;13.892;2023-04-01T18:39:11;50310.25;;;-142.97;27.56
8451;BME280;4262;50.980;13.892;2023-04-01T18:41:49;50298.53;;;-142.97;27.26
8451;BME280;4262;50.980;13.892;2023-04-01T18:44:27;50292.69;;;-142.97;27.15
8451;BME280;4262;50.980;13.892;2023-04-01T18:47:00;50300.50;;;-142.97;27.25
8451;BME280;4262;50.980;13.892;2023-04-01T18:49:39;50290.75;;;-142.97;26.87
8451;BME280;4262;50.980;13.892;2023-04-01T18:52:15;50282.94;;;-142.97;27.03
8451;BME280;4262;50.980;13.892;2023-04-01T18:55:14;50306.34;;;-142.97;26.88